Accueil
METAR-TAF:

METAR-TAF

Aéroports :

Salon-de-Provence, France

Base aérienne 701 Salon-de-Provence

latitude: 43-36N, longitude: 005-06E, altitude: 59 m

Observation

Le bulletin a été fait il y a 31 minutes, à 17:00 UTC
Vent 10 kt de nord/nord-ouest
Température 32°C
Humidité 29%
Pression 1012 hPa
Visibilité 10 km ou plus

METAR: LFMY 251700Z AUTO 33010KT 9999 // NSC 32/12 Q1012

Heure: 19:31 (17:31 UTC)


TAF: absent

Observations et prévisions météorologiques de plus de 4000 aéroports (messages METAR et TAF).

Les stations disponibles sont représentées par des disques jaunes et rouges sur la carte.

Passer la souris dessus pour voir le nom de la station.

Cliquer dessus pour voir les observations et prévisions météorologiques.

Pour changer de carte: cliquez sur les boutons verts avec une croix noire pour zoomer, sur le bouton vert avec un tiret pour effectuer un zoom arrière, ou sur les flèches vertes pour les cartes adjacentes.


METAR-TAF: